createdAt,value
2018-04-24T00:04:37.471Z,101164.00
2018-04-24T00:09:40.014Z,101161.36
2018-04-24T00:14:42.536Z,101160.48
2018-04-24T00:19:45.079Z,101161.52
2018-04-24T00:24:47.572Z,101160.39
2018-04-24T00:29:50.066Z,101165.89
2018-04-24T00:34:52.587Z,101169.30
2018-04-24T00:39:55.093Z,101178.28
2018-04-24T00:44:57.570Z,101162.56
2018-04-24T00:50:00.071Z,101163.89
2018-04-24T00:55:02.526Z,101177.91
2018-04-24T01:00:05.005Z,101172.36
2018-04-24T01:05:07.576Z,101170.78
2018-04-24T01:10:10.162Z,101166.11
2018-04-24T01:15:12.698Z,101181.00
2018-04-24T01:20:15.284Z,101198.89
2018-04-24T01:25:17.775Z,101203.97
2018-04-24T01:30:20.252Z,101194.00
2018-04-24T01:35:22.707Z,101196.09
2018-04-24T01:40:25.167Z,101194.89
2018-04-24T01:45:27.607Z,101195.47
2018-04-24T01:50:30.097Z,101205.23
2018-04-24T01:55:32.538Z,101210.20
2018-04-24T02:00:34.986Z,101207.58
2018-04-24T02:05:37.679Z,101202.34
2018-04-24T02:10:40.260Z,101203.14
2018-04-24T02:15:42.760Z,101214.52
2018-04-24T02:20:45.337Z,101216.61
2018-04-24T02:25:47.804Z,101220.69
2018-04-24T02:30:50.368Z,101216.14
2018-04-24T02:35:52.825Z,101215.70
2018-04-24T02:40:55.275Z,101227.59
2018-04-24T02:45:57.724Z,101221.57
2018-04-24T02:51:00.232Z,101214.53
2018-04-24T02:56:02.729Z,101209.86
2018-04-24T03:01:05.404Z,101209.30
2018-04-24T03:06:08.483Z,101205.16
2018-04-24T03:11:11.978Z,101208.19
2018-04-24T03:16:14.494Z,101189.96
2018-04-24T03:21:17.028Z,101179.36
2018-04-24T03:26:19.567Z,101177.49
2018-04-24T03:31:22.023Z,101176.16
2018-04-24T03:36:24.505Z,101173.02
2018-04-24T03:41:27.149Z,101173.11
2018-04-24T03:46:29.604Z,101174.69
2018-04-24T03:51:32.658Z,101172.61
2018-04-24T03:56:35.220Z,101170.38
2018-04-24T04:01:38.339Z,101168.63
2018-04-24T04:06:40.854Z,101169.50
2018-04-24T04:11:43.424Z,101165.54
2018-04-24T04:16:46.125Z,101163.27
2018-04-24T04:27:27.790Z,101176.83
2018-04-24T04:32:30.238Z,101170.47
2018-04-24T04:37:32.721Z,101171.12
2018-04-24T04:42:35.293Z,101160.59
2018-04-24T04:47:37.811Z,101164.40
2018-04-24T04:52:40.389Z,101167.33
2018-04-24T04:57:42.912Z,101143.26
2018-04-24T05:02:45.624Z,101142.77
2018-04-24T05:07:48.093Z,101133.00
2018-04-24T05:12:50.556Z,101135.46
2018-04-24T05:17:53.003Z,101163.67
2018-04-24T05:22:55.519Z,101136.26
2018-04-24T05:27:58.023Z,101129.48
2018-04-24T05:33:00.499Z,101137.17
2018-04-24T05:38:02.972Z,101144.09
2018-04-24T05:43:05.429Z,101151.47
2018-04-24T05:48:08.361Z,101146.94
2018-04-24T05:53:12.451Z,101142.84
2018-04-24T05:58:14.920Z,101143.30
2018-04-24T06:03:17.834Z,101137.50
2018-04-24T06:08:20.672Z,101125.15
2018-04-24T06:13:23.177Z,101115.97
2018-04-24T06:18:25.645Z,101116.04
2018-04-24T06:23:28.119Z,101135.47
2018-04-24T06:28:30.671Z,101142.44
2018-04-24T06:33:33.068Z,101124.13
2018-04-24T06:38:35.547Z,101109.38
2018-04-24T06:43:38.064Z,101106.06
2018-04-24T06:48:40.568Z,101114.48
2018-04-24T06:53:43.069Z,101115.03
2018-04-24T06:58:45.516Z,101108.56
2018-04-24T07:03:48.001Z,101106.03
2018-04-24T07:08:50.461Z,101096.91
2018-04-24T07:13:52.926Z,101107.84
2018-04-24T07:18:55.376Z,101100.26
2018-04-24T07:23:57.866Z,101097.19
2018-04-24T07:29:00.348Z,101078.19
2018-04-24T07:34:02.824Z,101079.64
2018-04-24T07:39:06.122Z,101065.08
2018-04-24T07:44:08.650Z,101069.55
2018-04-24T07:49:11.158Z,101071.13
2018-04-24T07:54:13.681Z,101072.25
2018-04-24T07:59:16.204Z,101067.48
2018-04-24T08:04:18.652Z,101062.58
2018-04-24T08:09:21.119Z,101055.70
2018-04-24T08:14:23.597Z,101050.15
2018-04-24T08:19:26.103Z,101043.28
2018-04-24T08:24:28.571Z,101040.07
2018-04-24T08:29:31.041Z,101041.16
2018-04-24T08:34:33.517Z,101055.19
2018-04-24T08:39:36.010Z,101044.80
2018-04-24T08:44:38.637Z,101037.70
2018-04-24T08:49:41.285Z,101036.02
2018-04-24T08:54:43.807Z,101044.67
2018-04-24T08:59:46.300Z,101060.42
2018-04-24T09:04:58.682Z,101053.93
2018-04-24T09:10:01.131Z,101054.08
2018-04-24T09:15:03.701Z,101051.03
2018-04-24T09:20:06.505Z,101049.56
2018-04-24T09:25:09.048Z,101054.59
2018-04-24T09:35:36.930Z,101043.17
2018-04-24T09:40:39.446Z,101053.56
2018-04-24T09:45:41.952Z,101056.63
2018-04-24T09:50:44.423Z,101063.73
2018-04-24T09:55:46.890Z,101058.27
2018-04-24T10:00:49.589Z,101061.77
2018-04-24T10:05:52.068Z,101060.50
2018-04-24T10:10:54.522Z,101060.88
2018-04-24T10:15:57.256Z,101069.55
2018-04-24T10:20:59.756Z,101075.61
2018-04-24T10:26:02.231Z,101074.45
2018-04-24T10:31:04.725Z,101073.66
2018-04-24T10:36:07.255Z,101062.27
2018-04-24T10:41:09.785Z,101059.39
2018-04-24T10:46:12.286Z,101072.73
2018-04-24T10:51:14.877Z,101067.56
2018-04-24T10:56:17.321Z,101060.67
2018-04-24T11:01:19.818Z,101069.52
2018-04-24T11:06:22.281Z,101068.66
2018-04-24T11:11:24.722Z,101066.22
2018-04-24T11:16:27.206Z,101075.24
2018-04-24T11:21:29.711Z,101075.29
2018-04-24T11:26:32.209Z,101083.44
2018-04-24T11:31:34.676Z,101093.11
2018-04-24T11:36:37.256Z,101094.13
2018-04-24T11:41:39.820Z,101079.09
2018-04-24T11:46:42.280Z,101088.75
2018-04-24T11:51:45.174Z,101087.02
2018-04-24T11:56:47.677Z,101096.63
2018-04-24T12:01:50.598Z,101092.47
2018-04-24T12:06:53.215Z,101094.32
2018-04-24T12:11:55.741Z,101096.45
2018-04-24T12:16:58.197Z,101100.31
2018-04-24T12:22:00.738Z,101112.36
2018-04-24T12:27:03.191Z,101100.05
2018-04-24T12:32:05.722Z,101097.87
2018-04-24T12:37:08.274Z,101096.62
2018-04-24T12:42:10.803Z,101095.66
2018-04-24T12:47:13.312Z,101088.32
2018-04-24T12:52:15.852Z,101091.84
2018-04-24T12:57:18.311Z,101083.59
2018-04-24T13:02:20.789Z,101084.17
2018-04-24T13:07:23.234Z,101083.44
2018-04-24T13:12:25.716Z,101087.98
2018-04-24T13:17:28.170Z,101089.72
2018-04-24T13:22:30.639Z,101092.84
2018-04-24T13:27:33.180Z,101079.41
2018-04-24T13:32:35.664Z,101080.31
2018-04-24T13:37:38.190Z,101082.31
2018-04-24T13:42:40.718Z,101086.88
2018-04-24T13:47:43.219Z,101083.95
2018-04-24T13:52:45.688Z,101075.98
2018-04-24T13:57:48.164Z,101057.91
2018-04-24T14:02:50.643Z,101039.03
2018-04-24T14:07:53.109Z,101036.58
2018-04-24T14:12:55.629Z,101042.30
2018-04-24T14:17:58.101Z,101056.86
2018-04-24T14:23:02.428Z,101055.97
2018-04-24T14:28:04.951Z,101052.77
2018-04-24T14:33:07.497Z,101055.62
2018-04-24T14:38:09.991Z,101043.37
2018-04-24T14:43:12.583Z,101029.34
2018-04-24T14:48:15.152Z,101040.72
2018-04-24T14:53:17.729Z,101044.42
2018-04-24T14:58:20.236Z,101037.33
2018-04-24T15:03:22.723Z,101041.28
2018-04-24T15:08:25.208Z,101047.75
2018-04-24T15:13:27.707Z,101052.73
2018-04-24T15:23:39.301Z,101051.73
2018-04-24T15:28:41.837Z,101057.17
2018-04-24T15:33:44.491Z,101055.61
2018-04-24T15:38:47.005Z,101057.34
2018-04-24T15:43:49.476Z,101069.48
2018-04-24T15:48:51.940Z,101061.30
2018-04-24T15:53:54.408Z,101056.78
2018-04-24T15:58:58.248Z,101050.02
2018-04-24T16:04:00.735Z,101044.23
2018-04-24T16:09:03.205Z,101057.31
2018-04-24T16:14:05.760Z,101059.42
2018-04-24T16:19:08.381Z,101057.08
2018-04-24T16:24:12.540Z,101050.55
2018-04-24T16:29:15.187Z,101044.58
2018-04-24T16:34:17.703Z,101037.63
2018-04-24T16:39:20.267Z,101033.59
2018-04-24T16:44:22.710Z,101042.14
2018-04-24T16:49:25.310Z,101041.21
2018-04-24T16:54:28.001Z,101030.58
2018-04-24T16:59:30.451Z,101033.11
2018-04-24T17:04:32.911Z,101033.66
2018-04-24T17:09:35.379Z,101035.12
2018-04-24T17:14:38.157Z,101038.58
2018-04-24T17:19:40.663Z,101037.41
2018-04-24T17:24:43.338Z,101036.54
2018-04-24T17:29:45.844Z,101031.22
2018-04-24T17:34:48.484Z,101032.73
2018-04-24T17:39:52.554Z,101020.27
2018-04-24T17:44:55.005Z,101021.62
2018-04-24T17:49:57.583Z,101018.94
2018-04-24T17:55:00.191Z,101031.64
2018-04-24T18:00:02.709Z,101024.78
2018-04-24T18:05:05.446Z,101032.14
2018-04-24T18:10:08.052Z,101032.97
2018-04-24T18:15:10.844Z,101034.61
2018-04-24T18:20:13.562Z,101028.11
2018-04-24T18:25:16.216Z,101022.59
2018-04-24T18:30:18.639Z,101021.56
2018-04-24T18:35:21.118Z,101015.53
2018-04-24T18:40:23.604Z,101022.34
2018-04-24T18:45:26.087Z,101020.22
2018-04-24T18:50:29.273Z,101017.79
2018-04-24T18:55:32.810Z,101022.88
2018-04-24T19:00:36.688Z,101021.28
2018-04-24T19:05:39.243Z,101015.86
2018-04-24T19:10:41.947Z,101012.93
2018-04-24T19:15:47.015Z,101010.09
2018-04-24T19:20:49.474Z,101008.02
2018-04-24T19:25:51.938Z,101017.80
2018-04-24T19:30:54.404Z,101007.67
2018-04-24T19:35:56.868Z,101006.06
2018-04-24T19:46:38.741Z,101002.12
2018-04-24T19:51:42.292Z,100992.97
2018-04-24T19:56:44.844Z,100989.55
2018-04-24T20:01:47.768Z,100979.12
2018-04-24T20:06:50.274Z,100972.53
2018-04-24T20:11:52.898Z,100968.72
2018-04-24T20:16:55.423Z,100959.27
2018-04-24T20:21:57.883Z,100957.94
2018-04-24T20:27:00.359Z,100958.52
2018-04-24T20:32:02.816Z,100941.94
2018-04-24T20:37:05.285Z,100942.41
2018-04-24T20:42:08.828Z,100936.61
2018-04-24T20:47:11.781Z,100933.98
2018-04-24T20:52:14.410Z,100943.81
2018-04-24T20:57:17.097Z,100943.72
2018-04-24T21:02:19.663Z,100931.52
2018-04-24T21:07:22.162Z,100923.62
2018-04-24T21:12:24.687Z,100921.13
2018-04-24T21:17:29.380Z,100923.42
2018-04-24T21:22:31.848Z,100919.95
2018-04-24T21:27:34.346Z,100915.42
2018-04-24T21:32:36.891Z,100910.80
2018-04-24T21:37:39.481Z,100908.91
2018-04-24T21:42:42.044Z,100906.73
2018-04-24T21:47:44.612Z,100908.31
2018-04-24T21:52:47.219Z,100892.55
2018-04-24T21:57:49.702Z,100884.27
2018-04-24T22:02:52.173Z,100876.48
2018-04-24T22:07:54.663Z,100869.55
2018-04-24T22:12:57.175Z,100861.75
2018-04-24T22:17:59.642Z,100854.40
2018-04-24T22:23:02.151Z,100845.72
2018-04-24T22:28:04.724Z,100843.25
2018-04-24T22:33:07.258Z,100847.78
2018-04-24T22:38:09.830Z,100841.95
2018-04-24T22:43:12.344Z,100839.67
2018-04-24T22:48:14.858Z,100833.33
2018-04-24T22:53:17.314Z,100818.23
2018-04-24T22:58:21.271Z,100813.56
2018-04-24T23:03:23.902Z,100812.81
2018-04-24T23:08:26.388Z,100812.58
2018-04-24T23:13:40.842Z,100807.33
2018-04-24T23:18:55.284Z,100797.58
2018-04-24T23:23:57.743Z,100791.62
2018-04-24T23:29:00.219Z,100785.33
2018-04-24T23:34:02.675Z,100779.48
2018-04-24T23:39:05.186Z,100773.48
2018-04-24T23:44:07.703Z,100761.45
2018-04-24T23:49:10.249Z,100767.36
2018-04-24T23:54:12.781Z,100750.13
2018-04-24T23:59:15.274Z,100746.39
